createdAt,value
2018-07-30T00:00:06.622Z,60.35
2018-07-30T00:02:41.218Z,60.98
2018-07-30T00:05:11.433Z,60.94
2018-07-30T00:07:40.976Z,60.80
2018-07-30T00:10:11.199Z,60.85
2018-07-30T00:12:40.511Z,60.28
2018-07-30T00:15:09.591Z,60.40
2018-07-30T00:17:39.381Z,60.38
2018-07-30T00:20:08.843Z,60.21
2018-07-30T00:23:41.065Z,60.50
2018-07-30T00:26:10.449Z,60.52
2018-07-30T00:28:39.719Z,60.62
2018-07-30T00:31:09.181Z,60.95
2018-07-30T00:33:38.757Z,61.73
2018-07-30T00:36:07.848Z,61.72
2018-07-30T00:38:42.543Z,61.96
2018-07-30T00:41:11.623Z,61.86
2018-07-30T00:43:40.821Z,61.62
2018-07-30T00:46:10.366Z,62.77
2018-07-30T00:48:39.609Z,62.62
2018-07-30T00:51:09.111Z,62.96
2018-07-30T00:53:41.364Z,63.14
2018-07-30T00:56:10.614Z,63.08
2018-07-30T00:58:40.166Z,62.86
2018-07-30T01:01:09.382Z,63.43
2018-07-30T01:03:38.517Z,63.22
2018-07-30T01:06:07.414Z,63.57
2018-07-30T01:08:36.973Z,63.34
2018-07-30T01:11:08.031Z,63.58
2018-07-30T01:13:36.957Z,63.54
2018-07-30T01:16:07.022Z,63.83
2018-07-30T01:18:36.271Z,63.61
2018-07-30T01:21:05.470Z,64.14
2018-07-30T01:23:34.552Z,63.92
2018-07-30T01:26:08.665Z,63.45
2018-07-30T01:28:38.008Z,63.57
2018-07-30T01:31:06.997Z,64.12
2018-07-30T01:33:35.961Z,63.90
2018-07-30T01:36:05.806Z,63.77
2018-07-30T01:38:34.686Z,64.22
2018-07-30T01:41:04.944Z,63.94
2018-07-30T01:47:06.805Z,64.53
2018-07-30T01:49:36.001Z,64.53
2018-07-30T01:52:06.553Z,64.07
2018-07-30T01:54:35.594Z,63.88
2018-07-30T01:57:04.977Z,64.08
2018-07-30T01:59:34.167Z,63.61
2018-07-30T02:02:03.129Z,63.59
2018-07-30T02:04:32.452Z,63.67
2018-07-30T02:07:02.032Z,63.06
2018-07-30T02:09:31.052Z,63.20
2018-07-30T02:12:00.188Z,62.90
2018-07-30T02:14:29.229Z,62.52
2018-07-30T02:16:58.181Z,62.73
2018-07-30T02:19:27.400Z,62.41
2018-07-30T02:21:56.525Z,62.15
2018-07-30T02:24:25.778Z,62.37
2018-07-30T02:26:55.079Z,61.90
2018-07-30T02:29:24.306Z,61.41
2018-07-30T02:31:53.212Z,61.42
2018-07-30T02:34:22.518Z,61.77
2018-07-30T02:36:51.909Z,60.75
2018-07-30T02:39:20.912Z,60.41
2018-07-30T02:41:50.310Z,59.98
2018-07-30T02:44:19.498Z,59.88
2018-07-30T02:46:48.643Z,59.91
2018-07-30T02:49:18.099Z,59.44
2018-07-30T02:51:47.324Z,59.10
2018-07-30T02:54:16.332Z,58.35
2018-07-30T02:56:45.874Z,58.09
2018-07-30T02:59:15.071Z,57.95
2018-07-30T03:01:44.004Z,58.52
2018-07-30T03:04:13.075Z,58.29
2018-07-30T03:06:42.235Z,57.64
2018-07-30T03:09:12.113Z,58.23
2018-07-30T03:11:41.269Z,57.30
2018-07-30T03:14:10.802Z,57.37
2018-07-30T03:16:39.739Z,57.25
2018-07-30T03:19:09.296Z,57.28
2018-07-30T03:21:38.602Z,57.08
2018-07-30T03:24:07.646Z,56.57
2018-07-30T03:26:36.826Z,56.81
2018-07-30T03:29:06.170Z,56.40
2018-07-30T03:31:35.145Z,55.87
2018-07-30T03:34:04.333Z,55.46
2018-07-30T03:36:33.653Z,54.95
2018-07-30T03:39:02.679Z,54.57
2018-07-30T03:41:31.761Z,54.69
2018-07-30T03:44:01.134Z,54.72
2018-07-30T03:46:31.146Z,54.22
2018-07-30T03:49:00.429Z,53.74
2018-07-30T03:51:29.699Z,53.43
2018-07-30T03:53:58.729Z,52.83
2018-07-30T03:56:28.144Z,52.52
2018-07-30T03:58:57.377Z,51.86
2018-07-30T04:01:26.415Z,51.46
2018-07-30T04:03:55.706Z,51.54
2018-07-30T04:06:25.034Z,50.83
2018-07-30T04:08:54.310Z,51.18
2018-07-30T04:11:24.560Z,50.91
2018-07-30T04:13:53.700Z,50.71
2018-07-30T04:16:22.768Z,50.51
2018-07-30T04:18:51.974Z,50.74
2018-07-30T04:21:21.058Z,51.10
2018-07-30T04:23:49.905Z,50.16
2018-07-30T04:27:23.057Z,50.06
2018-07-30T04:29:52.887Z,50.10
2018-07-30T04:32:22.386Z,51.30
2018-07-30T04:34:52.639Z,51.40
2018-07-30T04:37:21.727Z,50.99
2018-07-30T04:39:50.950Z,50.72
2018-07-30T04:42:20.112Z,49.65
2018-07-30T04:44:49.076Z,49.47
2018-07-30T04:47:18.155Z,49.30
2018-07-30T04:49:47.418Z,48.67
2018-07-30T04:52:16.308Z,47.77
2018-07-30T04:54:45.573Z,46.84
2018-07-30T04:57:14.844Z,46.88
2018-07-30T04:59:43.713Z,47.15
2018-07-30T05:02:12.958Z,46.41
2018-07-30T05:04:42.175Z,46.29
2018-07-30T05:07:11.302Z,46.41
2018-07-30T05:09:40.524Z,46.76
2018-07-30T05:12:09.706Z,46.95
2018-07-30T05:14:38.588Z,47.13
2018-07-30T05:17:07.993Z,46.92
2018-07-30T05:19:37.508Z,46.53
2018-07-30T05:22:06.532Z,46.15
2018-07-30T05:24:35.621Z,46.57
2018-07-30T05:27:04.973Z,46.20
2018-07-30T05:29:34.111Z,46.03
2018-07-30T05:32:04.048Z,45.55
2018-07-30T05:34:33.224Z,45.09
2018-07-30T05:37:02.453Z,45.04
2018-07-30T05:39:31.720Z,45.24
2018-07-30T05:42:01.097Z,44.50
2018-07-30T05:44:30.149Z,44.71
2018-07-30T05:46:59.540Z,43.97
2018-07-30T05:49:28.940Z,43.86
2018-07-30T05:51:57.945Z,43.28
2018-07-30T05:54:27.524Z,42.38
2018-07-30T05:56:56.807Z,41.85
2018-07-30T05:59:26.688Z,41.62
2018-07-30T06:01:55.944Z,41.41
2018-07-30T06:04:25.978Z,41.41
2018-07-30T06:06:55.069Z,41.87
2018-07-30T06:09:24.368Z,42.02
2018-07-30T06:11:53.689Z,41.59
2018-07-30T06:14:22.636Z,41.86
2018-07-30T06:16:52.247Z,41.77
2018-07-30T06:19:21.454Z,42.15
2018-07-30T06:21:50.525Z,42.26
2018-07-30T06:24:19.906Z,41.92
2018-07-30T06:26:49.051Z,41.95
2018-07-30T06:29:18.078Z,41.97
2018-07-30T06:31:47.282Z,41.99
2018-07-30T06:34:16.529Z,41.96
2018-07-30T06:36:45.439Z,42.52
2018-07-30T06:39:14.838Z,41.81
2018-07-30T06:41:44.388Z,42.26
2018-07-30T06:44:13.921Z,42.42
2018-07-30T06:46:43.136Z,41.70
2018-07-30T06:49:12.369Z,41.75
2018-07-30T06:51:41.325Z,42.27
2018-07-30T06:54:10.724Z,42.29
2018-07-30T06:56:39.983Z,42.23
2018-07-30T06:59:09.181Z,42.43
2018-07-30T07:01:38.416Z,41.76
2018-07-30T07:04:07.978Z,41.60
2018-07-30T07:06:37.108Z,42.19
2018-07-30T07:09:09.261Z,42.52
2018-07-30T07:11:38.976Z,42.07
2018-07-30T07:14:08.611Z,41.85
2018-07-30T07:16:38.033Z,41.92
2018-07-30T07:19:07.009Z,42.43
2018-07-30T07:21:36.286Z,42.40
2018-07-30T07:24:05.704Z,42.30
2018-07-30T07:26:34.724Z,41.66
2018-07-30T07:29:05.032Z,41.79
2018-07-30T07:31:34.332Z,41.69
2018-07-30T07:34:03.544Z,41.71
2018-07-30T07:36:32.653Z,42.19
2018-07-30T07:39:02.087Z,41.45
2018-07-30T07:41:31.089Z,41.88
2018-07-30T07:44:00.415Z,41.57
2018-07-30T07:46:29.535Z,41.98
2018-07-30T07:48:59.097Z,41.46
2018-07-30T07:51:28.418Z,41.92
2018-07-30T07:53:57.659Z,41.81
2018-07-30T07:56:26.766Z,41.85
2018-07-30T07:58:56.274Z,41.32
2018-07-30T08:01:25.847Z,41.69
2018-07-30T08:03:55.030Z,41.18
2018-07-30T08:06:24.216Z,41.62
2018-07-30T08:08:53.415Z,41.73
2018-07-30T08:11:22.938Z,41.58
2018-07-30T08:13:52.236Z,41.17
2018-07-30T08:16:21.758Z,41.62
2018-07-30T08:18:51.535Z,41.67
2018-07-30T08:21:20.702Z,41.57
2018-07-30T08:23:50.147Z,41.05
2018-07-30T08:26:19.303Z,41.38
2018-07-30T08:28:48.740Z,41.26
2018-07-30T08:31:18.484Z,40.63
2018-07-30T08:33:47.632Z,40.95
2018-07-30T08:36:17.229Z,40.82
2018-07-30T08:38:46.622Z,40.30
2018-07-30T08:41:15.712Z,40.45
2018-07-30T08:43:45.074Z,40.27
2018-07-30T08:46:14.374Z,40.19
2018-07-30T08:48:43.852Z,39.88
2018-07-30T08:51:14.021Z,40.18
2018-07-30T08:53:43.259Z,39.65
2018-07-30T08:56:12.320Z,39.72
2018-07-30T08:58:41.618Z,39.97
2018-07-30T09:01:10.926Z,39.29
2018-07-30T09:03:40.060Z,39.73
2018-07-30T09:06:09.289Z,39.30
2018-07-30T09:08:38.559Z,39.74
2018-07-30T09:11:07.663Z,39.01
2018-07-30T09:13:36.974Z,39.23
2018-07-30T09:16:06.404Z,38.91
2018-07-30T09:22:08.261Z,38.74
2018-07-30T09:24:37.328Z,38.59
2018-07-30T09:27:06.700Z,38.86
2018-07-30T09:29:36.109Z,38.76
2018-07-30T09:32:05.736Z,38.45
2018-07-30T09:34:35.101Z,37.90
2018-07-30T09:37:04.563Z,37.15
2018-07-30T09:39:33.819Z,37.32
2018-07-30T09:42:03.272Z,37.19
2018-07-30T09:44:32.839Z,36.88
2018-07-30T09:47:01.831Z,37.15
2018-07-30T09:49:30.996Z,37.03
2018-07-30T09:52:00.269Z,37.20
2018-07-30T09:54:29.383Z,37.46
2018-07-30T09:56:58.512Z,37.39
2018-07-30T09:59:28.057Z,37.27
2018-07-30T10:01:58.043Z,36.66
2018-07-30T10:04:27.394Z,36.91
2018-07-30T10:06:57.007Z,36.55
2018-07-30T10:09:26.425Z,37.08
2018-07-30T10:11:57.226Z,37.08
2018-07-30T10:14:27.224Z,36.47
2018-07-30T10:16:56.590Z,36.54
2018-07-30T10:19:25.862Z,37.01
2018-07-30T10:21:55.373Z,36.37
2018-07-30T10:24:24.391Z,36.42
2018-07-30T10:26:54.257Z,36.78
2018-07-30T10:29:23.551Z,36.53
2018-07-30T10:31:52.664Z,36.58
2018-07-30T10:34:21.912Z,36.48
2018-07-30T10:36:51.124Z,36.35
2018-07-30T10:39:20.365Z,36.03
2018-07-30T10:41:49.921Z,36.17
2018-07-30T10:44:19.235Z,35.43
2018-07-30T10:46:48.341Z,35.40
2018-07-30T10:49:17.673Z,35.99
2018-07-30T10:51:46.974Z,35.31
2018-07-30T10:54:16.033Z,34.95
2018-07-30T10:56:45.265Z,34.67
2018-07-30T10:59:15.552Z,34.53
2018-07-30T11:01:44.591Z,34.73
2018-07-30T11:04:14.062Z,34.71
2018-07-30T11:06:43.432Z,33.94
2018-07-30T11:09:13.803Z,34.32
2018-07-30T11:11:41.774Z,34.78
2018-07-30T11:14:11.031Z,34.59
2018-07-30T11:16:40.177Z,34.33
2018-07-30T11:19:13.270Z,33.75
2018-07-30T11:21:43.231Z,34.15
2018-07-30T11:24:14.801Z,34.53
2018-07-30T11:29:19.630Z,34.65
2018-07-30T11:31:49.676Z,34.41
2018-07-30T11:34:19.939Z,33.94
2018-07-30T11:36:49.572Z,34.26
2018-07-30T11:39:19.449Z,34.00
2018-07-30T11:41:48.612Z,34.06
2018-07-30T11:44:17.963Z,34.79
2018-07-30T11:46:47.366Z,34.40
2018-07-30T11:49:16.334Z,34.21
2018-07-30T11:51:45.487Z,35.73
2018-07-30T11:54:14.894Z,35.43
2018-07-30T11:56:43.861Z,36.18
2018-07-30T11:59:13.102Z,36.32
2018-07-30T12:01:42.448Z,35.94
2018-07-30T12:04:11.876Z,36.29
2018-07-30T12:06:41.010Z,35.60
2018-07-30T12:09:10.406Z,35.99
2018-07-30T12:11:39.585Z,36.64
2018-07-30T12:14:08.807Z,36.35
2018-07-30T12:16:38.067Z,36.46
2018-07-30T12:19:07.336Z,36.49
2018-07-30T12:21:37.464Z,36.99
2018-07-30T12:24:06.712Z,36.63
2018-07-30T12:26:36.112Z,37.09
2018-07-30T12:29:05.834Z,37.58
2018-07-30T12:31:35.341Z,38.03
2018-07-30T12:34:04.646Z,37.38
2018-07-30T12:36:34.214Z,36.83
2018-07-30T12:39:03.640Z,37.14
2018-07-30T12:41:32.734Z,38.42
2018-07-30T12:44:02.046Z,38.13
2018-07-30T12:46:31.130Z,38.48
2018-07-30T12:49:00.130Z,38.40
2018-07-30T12:51:29.365Z,38.29
2018-07-30T12:53:58.747Z,38.03
2018-07-30T12:56:28.500Z,38.07
2018-07-30T12:58:57.762Z,37.54
2018-07-30T13:01:27.494Z,37.94
2018-07-30T13:03:56.654Z,38.03
2018-07-30T13:06:26.185Z,37.34
2018-07-30T13:08:55.823Z,38.21
2018-07-30T13:11:25.458Z,38.48
2018-07-30T13:13:54.870Z,38.81
2018-07-30T13:16:24.171Z,39.42
2018-07-30T13:18:53.189Z,38.46
2018-07-30T13:21:22.500Z,38.32
2018-07-30T13:23:51.878Z,38.65
2018-07-30T13:26:20.887Z,39.19
2018-07-30T13:28:50.228Z,39.02
2018-07-30T13:33:47.605Z,40.17
2018-07-30T13:36:17.711Z,40.80
2018-07-30T13:38:47.235Z,41.38
2018-07-30T13:41:16.948Z,42.38
2018-07-30T13:43:46.827Z,42.28
2018-07-30T13:46:16.253Z,41.92
2018-07-30T13:48:45.851Z,42.21
2018-07-30T13:51:15.707Z,42.96
2018-07-30T13:53:45.180Z,43.28
2018-07-30T13:56:14.835Z,43.10
2018-07-30T13:58:45.154Z,43.31
2018-07-30T14:01:15.109Z,43.57
2018-07-30T14:03:44.784Z,43.29
2018-07-30T14:06:14.742Z,43.15
2018-07-30T14:08:44.298Z,43.36
2018-07-30T14:11:14.374Z,43.29
2018-07-30T14:13:44.190Z,42.05
2018-07-30T14:16:13.897Z,41.81
2018-07-30T14:18:43.212Z,42.92
2018-07-30T14:21:13.312Z,42.83
2018-07-30T14:23:42.744Z,43.42
2018-07-30T14:26:12.143Z,42.94
2018-07-30T14:28:42.549Z,43.93
2018-07-30T14:31:12.636Z,43.77
2018-07-30T14:33:42.295Z,43.55
2018-07-30T14:36:12.289Z,43.47
2018-07-30T14:38:41.969Z,42.77
2018-07-30T14:41:11.485Z,42.59
2018-07-30T14:43:41.347Z,43.18
2018-07-30T14:46:10.977Z,42.78
2018-07-30T14:48:40.576Z,43.40
2018-07-30T14:51:10.565Z,43.41
2018-07-30T14:53:40.020Z,43.15
2018-07-30T14:56:09.368Z,43.00
2018-07-30T14:58:39.396Z,43.12
2018-07-30T15:01:08.975Z,43.28
2018-07-30T15:03:38.362Z,42.56
2018-07-30T15:06:08.396Z,42.29
2018-07-30T15:08:38.571Z,42.64
2018-07-30T15:11:08.893Z,41.94
2018-07-30T15:13:38.645Z,42.32
2018-07-30T15:16:08.655Z,42.33
2018-07-30T15:18:38.492Z,41.96
2018-07-30T15:21:08.561Z,42.49
2018-07-30T15:23:37.997Z,41.57
2018-07-30T15:26:08.030Z,42.25
2018-07-30T15:28:37.920Z,41.64
2018-07-30T15:31:07.440Z,41.63
2018-07-30T15:33:37.366Z,40.38
2018-07-30T15:36:07.186Z,40.65
2018-07-30T15:38:37.064Z,41.22
2018-07-30T15:41:07.027Z,41.01
2018-07-30T15:43:36.512Z,41.43
2018-07-30T15:46:06.277Z,40.24
2018-07-30T15:48:35.991Z,39.79
2018-07-30T15:51:06.545Z,39.56
2018-07-30T15:53:36.137Z,39.66
2018-07-30T15:56:05.820Z,39.69
2018-07-30T15:58:35.291Z,38.98
2018-07-30T16:01:05.168Z,39.35
2018-07-30T16:03:35.032Z,39.14
2018-07-30T16:06:05.083Z,38.92
2018-07-30T16:08:34.690Z,38.92
2018-07-30T16:11:04.708Z,39.66
2018-07-30T16:13:34.213Z,39.76
2018-07-30T16:16:04.413Z,40.10
2018-07-30T16:18:34.429Z,39.77
2018-07-30T16:21:04.269Z,40.02
2018-07-30T16:23:34.163Z,41.02
2018-07-30T16:26:04.108Z,40.93
2018-07-30T16:28:33.569Z,40.50
2018-07-30T16:31:03.306Z,41.20
2018-07-30T16:33:33.184Z,41.53
2018-07-30T16:36:02.592Z,41.28
2018-07-30T16:38:32.321Z,41.94
2018-07-30T16:41:02.653Z,42.39
2018-07-30T16:43:32.536Z,41.75
2018-07-30T16:46:02.896Z,42.51
2018-07-30T16:48:32.482Z,42.65
2018-07-30T16:51:02.340Z,42.42
2018-07-30T16:53:32.600Z,42.50
2018-07-30T16:56:02.293Z,42.26
2018-07-30T16:58:32.153Z,42.38
2018-07-30T17:01:01.895Z,42.02
2018-07-30T17:03:31.664Z,41.54
2018-07-30T17:06:01.146Z,42.60
2018-07-30T17:08:30.917Z,42.12
2018-07-30T17:11:00.878Z,42.56
2018-07-30T17:13:31.071Z,41.80
2018-07-30T17:16:01.058Z,42.24
2018-07-30T17:18:30.507Z,42.47
2018-07-30T17:21:00.498Z,41.60
2018-07-30T17:23:31.097Z,42.45
2018-07-30T17:26:01.002Z,42.49
2018-07-30T17:28:30.752Z,42.71
2018-07-30T17:31:00.704Z,42.39
2018-07-30T17:33:30.492Z,42.63
2018-07-30T17:36:00.250Z,42.35
2018-07-30T17:38:29.813Z,41.66
2018-07-30T17:40:59.612Z,41.72
2018-07-30T17:43:29.149Z,42.36
2018-07-30T17:45:58.863Z,42.11
2018-07-30T17:48:29.691Z,42.15
2018-07-30T17:50:59.462Z,41.41
2018-07-30T17:53:29.383Z,41.77
2018-07-30T17:55:59.056Z,42.23
2018-07-30T17:58:28.598Z,42.24
2018-07-30T18:00:58.590Z,42.06
2018-07-30T18:03:28.945Z,41.58
2018-07-30T18:05:58.514Z,42.20
2018-07-30T18:08:28.363Z,42.11
2018-07-30T18:10:57.947Z,42.16
2018-07-30T18:13:27.542Z,42.42
2018-07-30T18:15:57.290Z,42.31
2018-07-30T18:18:26.881Z,41.90
2018-07-30T18:20:56.245Z,42.28
2018-07-30T18:23:26.174Z,41.46
2018-07-30T18:25:56.004Z,41.71
2018-07-30T18:28:25.614Z,41.88
2018-07-30T18:30:55.228Z,41.69
2018-07-30T18:33:24.877Z,41.39
2018-07-30T18:35:54.618Z,41.77
2018-07-30T18:38:24.581Z,40.86
2018-07-30T18:40:54.116Z,40.64
2018-07-30T18:43:23.511Z,41.19
2018-07-30T18:45:53.552Z,40.35
2018-07-30T18:48:23.097Z,40.89
2018-07-30T18:50:52.707Z,40.08
2018-07-30T18:53:22.582Z,39.88
2018-07-30T18:55:52.265Z,39.96
2018-07-30T18:58:21.874Z,40.07
2018-07-30T19:00:51.957Z,40.07
2018-07-30T19:03:21.485Z,39.15
2018-07-30T19:05:50.977Z,39.54
2018-07-30T19:08:20.710Z,39.67
2018-07-30T19:10:50.573Z,38.97
2018-07-30T19:13:19.961Z,38.64
2018-07-30T19:15:49.589Z,39.22
2018-07-30T19:18:19.259Z,38.69
2018-07-30T19:20:49.041Z,39.33
2018-07-30T19:23:18.792Z,38.99
2018-07-30T19:25:48.571Z,38.66
2018-07-30T19:28:18.289Z,38.68
2018-07-30T19:30:47.798Z,39.58
2018-07-30T19:33:17.883Z,38.81
2018-07-30T19:35:47.541Z,38.79
2018-07-30T19:38:17.373Z,38.86
2018-07-30T19:40:46.956Z,39.77
2018-07-30T19:43:16.825Z,39.58
2018-07-30T19:45:46.572Z,39.34
2018-07-30T19:48:16.441Z,39.44
2018-07-30T19:50:46.057Z,39.40
2018-07-30T19:53:16.103Z,39.46
2018-07-30T19:55:45.760Z,39.02
2018-07-30T19:58:15.890Z,39.08
2018-07-30T20:00:45.306Z,39.64
2018-07-30T20:03:15.040Z,39.83
2018-07-30T20:05:44.749Z,39.39
2018-07-30T20:08:14.462Z,40.05
2018-07-30T20:10:44.997Z,40.50
2018-07-30T20:13:14.814Z,40.71
2018-07-30T20:15:44.428Z,40.56
2018-07-30T20:18:14.116Z,40.90
2018-07-30T20:20:44.033Z,41.25
2018-07-30T20:23:13.495Z,40.88
2018-07-30T20:25:43.550Z,41.56
2018-07-30T20:28:13.644Z,41.59
2018-07-30T20:30:43.417Z,41.77
2018-07-30T20:33:13.380Z,42.13
2018-07-30T20:35:43.289Z,41.75
2018-07-30T20:38:13.297Z,42.13
2018-07-30T20:40:43.666Z,42.10
2018-07-30T20:43:13.480Z,41.74
2018-07-30T20:45:43.302Z,41.87
2018-07-30T20:48:13.033Z,42.55
2018-07-30T20:50:42.753Z,41.87
2018-07-30T20:53:12.373Z,42.24
2018-07-30T20:55:42.052Z,42.28
2018-07-30T20:58:11.688Z,42.39
2018-07-30T21:00:41.094Z,42.23
2018-07-30T21:03:10.823Z,42.87
2018-07-30T21:05:43.787Z,43.00
2018-07-30T21:08:15.291Z,43.75
2018-07-30T21:10:46.363Z,43.81
2018-07-30T21:13:16.878Z,43.61
2018-07-30T21:15:46.947Z,43.75
2018-07-30T21:18:16.957Z,43.19
2018-07-30T21:20:47.426Z,43.86
2018-07-30T21:23:16.839Z,43.62
2018-07-30T21:25:46.456Z,44.17
2018-07-30T21:28:16.454Z,44.49
2018-07-30T21:30:46.312Z,44.36
2018-07-30T21:33:16.031Z,44.90
2018-07-30T21:35:45.520Z,45.14
2018-07-30T21:38:15.464Z,45.31
2018-07-30T21:40:45.132Z,45.38
2018-07-30T21:43:14.891Z,45.92
2018-07-30T21:45:44.845Z,45.81
2018-07-30T21:48:14.468Z,44.94
2018-07-30T21:50:43.925Z,45.28
2018-07-30T21:53:13.758Z,45.06
2018-07-30T21:55:43.423Z,45.00
2018-07-30T21:58:12.910Z,44.41
2018-07-30T22:00:47.165Z,45.07
2018-07-30T22:03:17.184Z,44.85
2018-07-30T22:05:49.920Z,45.49
2018-07-30T22:08:19.312Z,45.21
2018-07-30T22:10:48.914Z,45.20
2018-07-30T22:13:18.691Z,45.90
2018-07-30T22:15:48.334Z,46.50
2018-07-30T22:18:18.492Z,46.86
2018-07-30T22:20:48.120Z,46.44
2018-07-30T22:23:18.048Z,47.19
2018-07-30T22:25:47.622Z,47.20
2018-07-30T22:28:17.248Z,47.01
2018-07-30T22:30:46.696Z,46.52
2018-07-30T22:33:16.832Z,46.87
2018-07-30T22:35:46.798Z,46.97
2018-07-30T22:38:16.402Z,47.37
2018-07-30T22:40:45.768Z,47.39
2018-07-30T22:43:15.665Z,46.76
2018-07-30T22:45:45.382Z,46.42
2018-07-30T22:48:15.030Z,47.05
2018-07-30T22:50:44.598Z,47.35
2018-07-30T22:53:14.136Z,47.40
2018-07-30T22:55:43.715Z,47.31
2018-07-30T22:58:13.495Z,47.71
2018-07-30T23:00:42.959Z,47.45
2018-07-30T23:03:12.763Z,47.82
2018-07-30T23:05:42.898Z,47.46
2018-07-30T23:08:12.530Z,47.56
2018-07-30T23:10:42.517Z,48.21
2018-07-30T23:13:12.131Z,48.17
2018-07-30T23:15:41.671Z,47.93
2018-07-30T23:18:11.393Z,48.09
2018-07-30T23:20:41.170Z,47.86
2018-07-30T23:23:10.598Z,47.86
2018-07-30T23:25:40.206Z,48.07
2018-07-30T23:28:09.785Z,47.99
2018-07-30T23:30:39.464Z,48.18
2018-07-30T23:33:09.202Z,48.44
2018-07-30T23:35:38.853Z,47.87
2018-07-30T23:38:08.241Z,48.57
2018-07-30T23:40:37.893Z,48.60
2018-07-30T23:43:07.615Z,49.03
2018-07-30T23:45:37.140Z,48.67
2018-07-30T23:48:07.955Z,48.70
2018-07-30T23:50:37.387Z,49.27
2018-07-30T23:53:07.239Z,49.41
2018-07-30T23:55:36.984Z,49.55
2018-07-30T23:58:06.966Z,49.04
